sensor_id;sensor_type;location;lat;lon;timestamp;temperature;humidity
7700;DHT22;3892;47.794;19.126;2022-08-06T00:00:59;30.00;42.60
7700;DHT22;3892;47.794;19.126;2022-08-06T00:03:26;29.90;42.50
7700;DHT22;3892;47.794;19.126;2022-08-06T00:05:53;29.90;42.50
7700;DHT22;3892;47.794;19.126;2022-08-06T00:08:20;29.90;42.60
7700;DHT22;3892;47.794;19.126;2022-08-06T00:10:48;29.90;42.60
7700;DHT22;3892;47.794;19.126;2022-08-06T00:13:15;29.90;42.60
7700;DHT22;3892;47.794;19.126;2022-08-06T00:15:44;29.90;42.60
7700;DHT22;3892;47.794;19.126;2022-08-06T00:18:11;30.00;42.50
7700;DHT22;3892;47.794;19.126;2022-08-06T00:20:38;29.90;42.50
7700;DHT22;3892;47.794;19.126;2022-08-06T00:23:05;29.90;42.50
7700;DHT22;3892;47.794;19.126;2022-08-06T00:25:32;29.90;43.20
7700;DHT22;3892;47.794;19.126;2022-08-06T00:28:00;29.90;42.60
7700;DHT22;3892;47.794;19.126;2022-08-06T00:30:27;29.90;42.40
7700;DHT22;3892;47.794;19.126;2022-08-06T00:32:54;29.90;42.30
7700;DHT22;3892;47.794;19.126;2022-08-06T00:35:23;29.90;42.30
7700;DHT22;3892;47.794;19.126;2022-08-06T00:37:50;29.90;42.30
7700;DHT22;3892;47.794;19.126;2022-08-06T00:40:18;29.90;42.40
7700;DHT22;3892;47.794;19.126;2022-08-06T00:42:46;29.90;42.40
7700;DHT22;3892;47.794;19.126;2022-08-06T00:45:15;29.80;42.30
7700;DHT22;3892;47.794;19.126;2022-08-06T00:47:42;29.80;42.40
7700;DHT22;3892;47.794;19.126;2022-08-06T00:50:09;29.80;42.50
7700;DHT22;3892;47.794;19.126;2022-08-06T00:52:36;29.80;42.50
7700;DHT22;3892;47.794;19.126;2022-08-06T00:55:03;29.70;42.50
7700;DHT22;3892;47.794;19.126;2022-08-06T00:57:30;29.70;42.00
7700;DHT22;3892;47.794;19.126;2022-08-06T00:59:57;29.70;42.00
7700;DHT22;3892;47.794;19.126;2022-08-06T01:02:25;29.60;42.10
7700;DHT22;3892;47.794;19.126;2022-08-06T01:04:52;29.40;42.20
7700;DHT22;3892;47.794;19.126;2022-08-06T01:07:19;29.40;43.20
7700;DHT22;3892;47.794;19.126;2022-08-06T01:09:46;29.30;42.70
7700;DHT22;3892;47.794;19.126;2022-08-06T01:12:14;29.30;42.60
7700;DHT22;3892;47.794;19.126;2022-08-06T01:14:41;29.30;42.70
7700;DHT22;3892;47.794;19.126;2022-08-06T01:17:13;29.30;42.80
7700;DHT22;3892;47.794;19.126;2022-08-06T01:19:50;29.30;42.90
7700;DHT22;3892;47.794;19.126;2022-08-06T01:22:37;29.30;42.90
7700;DHT22;3892;47.794;19.126;2022-08-06T01:25:18;29.30;42.80
7700;DHT22;3892;47.794;19.126;2022-08-06T01:27:55;29.30;43.50
7700;DHT22;3892;47.794;19.126;2022-08-06T01:30:29;29.30;42.70
7700;DHT22;3892;47.794;19.126;2022-08-06T01:33:02;29.30;42.60
7700;DHT22;3892;47.794;19.126;2022-08-06T01:35:34;29.30;43.20
7700;DHT22;3892;47.794;19.126;2022-08-06T01:38:07;29.30;42.50
7700;DHT22;3892;47.794;19.126;2022-08-06T01:40:36;29.30;42.40
7700;DHT22;3892;47.794;19.126;2022-08-06T01:43:07;29.20;42.20
7700;DHT22;3892;47.794;19.126;2022-08-06T01:45:37;29.20;42.80
7700;DHT22;3892;47.794;19.126;2022-08-06T01:48:06;29.10;42.30
7700;DHT22;3892;47.794;19.126;2022-08-06T01:50:38;29.10;42.30
7700;DHT22;3892;47.794;19.126;2022-08-06T01:53:08;29.10;42.40
7700;DHT22;3892;47.794;19.126;2022-08-06T01:55:42;29.10;42.60
7700;DHT22;3892;47.794;19.126;2022-08-06T01:58:12;29.00;42.80
7700;DHT22;3892;47.794;19.126;2022-08-06T02:00:44;29.00;42.80
7700;DHT22;3892;47.794;19.126;2022-08-06T02:03:16;28.90;42.90
7700;DHT22;3892;47.794;19.126;2022-08-06T02:05:44;28.80;43.00
7700;DHT22;3892;47.794;19.126;2022-08-06T02:08:13;28.70;43.30
7700;DHT22;3892;47.794;19.126;2022-08-06T02:10:42;28.70;43.60
7700;DHT22;3892;47.794;19.126;2022-08-06T02:13:12;28.70;43.30
7700;DHT22;3892;47.794;19.126;2022-08-06T02:15:41;28.80;43.20
7700;DHT22;3892;47.794;19.126;2022-08-06T02:18:09;28.80;43.00
7700;DHT22;3892;47.794;19.126;2022-08-06T02:20:39;28.80;42.90
7700;DHT22;3892;47.794;19.126;2022-08-06T02:23:11;28.80;43.00
7700;DHT22;3892;47.794;19.126;2022-08-06T02:25:41;28.80;43.10
7700;DHT22;3892;47.794;19.126;2022-08-06T02:28:12;28.80;43.00
7700;DHT22;3892;47.794;19.126;2022-08-06T02:30:43;28.80;42.90
7700;DHT22;3892;47.794;19.126;2022-08-06T02:33:11;28.80;42.90
7700;DHT22;3892;47.794;19.126;2022-08-06T02:35:42;28.80;43.00
7700;DHT22;3892;47.794;19.126;2022-08-06T02:38:17;28.80;43.00
7700;DHT22;3892;47.794;19.126;2022-08-06T02:40:50;28.70;43.00
7700;DHT22;3892;47.794;19.126;2022-08-06T02:43:23;28.70;43.00
7700;DHT22;3892;47.794;19.126;2022-08-06T02:45:57;28.70;43.20
7700;DHT22;3892;47.794;19.126;2022-08-06T02:48:27;28.70;43.20
7700;DHT22;3892;47.794;19.126;2022-08-06T02:50:57;28.70;43.20
7700;DHT22;3892;47.794;19.126;2022-08-06T02:53:30;28.70;43.10
7700;DHT22;3892;47.794;19.126;2022-08-06T02:56:06;28.60;43.00
7700;DHT22;3892;47.794;19.126;2022-08-06T02:58:41;28.60;43.10
7700;DHT22;3892;47.794;19.126;2022-08-06T03:01:12;28.60;42.90
7700;DHT22;3892;47.794;19.126;2022-08-06T03:03:42;28.50;42.90
7700;DHT22;3892;47.794;19.126;2022-08-06T03:06:10;28.50;42.90
7700;DHT22;3892;47.794;19.126;2022-08-06T03:08:39;28.50;43.10
7700;DHT22;3892;47.794;19.126;2022-08-06T03:11:08;28.50;43.20
7700;DHT22;3892;47.794;19.126;2022-08-06T03:13:38;28.50;43.20
7700;DHT22;3892;47.794;19.126;2022-08-06T03:16:05;28.50;43.20
7700;DHT22;3892;47.794;19.126;2022-08-06T03:18:34;28.50;43.20
7700;DHT22;3892;47.794;19.126;2022-08-06T03:21:03;28.40;42.90
7700;DHT22;3892;47.794;19.126;2022-08-06T03:23:31;28.40;43.00
7700;DHT22;3892;47.794;19.126;2022-08-06T03:25:59;28.40;43.30
7700;DHT22;3892;47.794;19.126;2022-08-06T03:28:27;28.40;43.40
7700;DHT22;3892;47.794;19.126;2022-08-06T03:30:56;28.40;43.10
7700;DHT22;3892;47.794;19.126;2022-08-06T03:33:24;28.30;43.10
7700;DHT22;3892;47.794;19.126;2022-08-06T03:35:53;28.30;43.00
7700;DHT22;3892;47.794;19.126;2022-08-06T03:38:22;28.30;42.90
7700;DHT22;3892;47.794;19.126;2022-08-06T03:40:49;28.30;42.70
7700;DHT22;3892;47.794;19.126;2022-08-06T03:43:17;28.30;42.70
7700;DHT22;3892;47.794;19.126;2022-08-06T03:45:48;28.30;43.40
7700;DHT22;3892;47.794;19.126;2022-08-06T03:48:21;28.30;42.80
7700;DHT22;3892;47.794;19.126;2022-08-06T03:50:50;28.20;42.60
7700;DHT22;3892;47.794;19.126;2022-08-06T03:53:22;28.20;42.70
7700;DHT22;3892;47.794;19.126;2022-08-06T03:55:53;28.20;42.60
7700;DHT22;3892;47.794;19.126;2022-08-06T03:58:22;28.20;42.70
7700;DHT22;3892;47.794;19.126;2022-08-06T04:00:53;28.20;42.70
7700;DHT22;3892;47.794;19.126;2022-08-06T04:03:22;28.20;42.70
7700;DHT22;3892;47.794;19.126;2022-08-06T04:05:49;28.20;42.90
7700;DHT22;3892;47.794;19.126;2022-08-06T04:08:17;28.20;42.90
7700;DHT22;3892;47.794;19.126;2022-08-06T04:10:47;28.20;42.80
7700;DHT22;3892;47.794;19.126;2022-08-06T04:13:15;28.30;42.50
7700;DHT22;3892;47.794;19.126;2022-08-06T04:15:43;28.20;42.40
7700;DHT22;3892;47.794;19.126;2022-08-06T04:18:12;28.10;42.20
7700;DHT22;3892;47.794;19.126;2022-08-06T04:20:43;28.10;42.40
7700;DHT22;3892;47.794;19.126;2022-08-06T04:23:11;28.20;42.20
7700;DHT22;3892;47.794;19.126;2022-08-06T04:25:40;28.20;42.00
7700;DHT22;3892;47.794;19.126;2022-08-06T04:28:09;28.20;41.60
7700;DHT22;3892;47.794;19.126;2022-08-06T04:30:37;28.20;41.30
7700;DHT22;3892;47.794;19.126;2022-08-06T04:33:08;28.20;41.30
7700;DHT22;3892;47.794;19.126;2022-08-06T04:35:37;28.20;41.20
7700;DHT22;3892;47.794;19.126;2022-08-06T04:38:07;28.30;41.40
7700;DHT22;3892;47.794;19.126;2022-08-06T04:40:35;28.30;41.90
7700;DHT22;3892;47.794;19.126;2022-08-06T04:43:04;28.30;41.50
7700;DHT22;3892;47.794;19.126;2022-08-06T04:45:31;28.30;41.40
7700;DHT22;3892;47.794;19.126;2022-08-06T04:47:59;28.30;41.50
7700;DHT22;3892;47.794;19.126;2022-08-06T04:50:27;28.30;41.30
7700;DHT22;3892;47.794;19.126;2022-08-06T04:53:04;28.30;41.20
7700;DHT22;3892;47.794;19.126;2022-08-06T04:55:32;28.30;40.90
7700;DHT22;3892;47.794;19.126;2022-08-06T04:58:00;28.40;41.20
7700;DHT22;3892;47.794;19.126;2022-08-06T05:00:27;28.40;41.30
7700;DHT22;3892;47.794;19.126;2022-08-06T05:02:54;28.40;41.40
7700;DHT22;3892;47.794;19.126;2022-08-06T05:05:21;28.40;41.60
7700;DHT22;3892;47.794;19.126;2022-08-06T05:07:50;28.30;41.60
7700;DHT22;3892;47.794;19.126;2022-08-06T05:10:20;28.40;41.70
7700;DHT22;3892;47.794;19.126;2022-08-06T05:12:51;28.40;42.20
7700;DHT22;3892;47.794;19.126;2022-08-06T05:15:22;28.50;42.80
7700;DHT22;3892;47.794;19.126;2022-08-06T05:17:55;28.60;42.30
7700;DHT22;3892;47.794;19.126;2022-08-06T05:20:23;28.60;42.10
7700;DHT22;3892;47.794;19.126;2022-08-06T05:22:54;28.60;42.60
7700;DHT22;3892;47.794;19.126;2022-08-06T05:25:22;28.70;43.60
7700;DHT22;3892;47.794;19.126;2022-08-06T05:27:50;28.70;43.00
7700;DHT22;3892;47.794;19.126;2022-08-06T05:30:18;28.70;43.00
7700;DHT22;3892;47.794;19.126;2022-08-06T05:32:46;28.80;43.00
7700;DHT22;3892;47.794;19.126;2022-08-06T05:35:14;28.80;43.20
7700;DHT22;3892;47.794;19.126;2022-08-06T05:37:41;28.90;43.90
7700;DHT22;3892;47.794;19.126;2022-08-06T05:40:08;29.00;43.50
7700;DHT22;3892;47.794;19.126;2022-08-06T05:42:35;29.00;43.50
7700;DHT22;3892;47.794;19.126;2022-08-06T05:45:04;29.00;43.50
7700;DHT22;3892;47.794;19.126;2022-08-06T05:47:36;29.10;43.50
7700;DHT22;3892;47.794;19.126;2022-08-06T05:50:06;29.10;43.50
7700;DHT22;3892;47.794;19.126;2022-08-06T05:52:37;29.10;43.70
7700;DHT22;3892;47.794;19.126;2022-08-06T05:55:09;29.10;44.30
7700;DHT22;3892;47.794;19.126;2022-08-06T05:57:40;29.10;45.00
7700;DHT22;3892;47.794;19.126;2022-08-06T06:00:12;29.10;44.20
7700;DHT22;3892;47.794;19.126;2022-08-06T06:02:46;29.20;43.70
7700;DHT22;3892;47.794;19.126;2022-08-06T06:05:14;29.20;42.70
7700;DHT22;3892;47.794;19.126;2022-08-06T06:07:42;29.30;42.70
7700;DHT22;3892;47.794;19.126;2022-08-06T06:10:09;29.30;42.60
7700;DHT22;3892;47.794;19.126;2022-08-06T06:12:38;29.40;42.50
7700;DHT22;3892;47.794;19.126;2022-08-06T06:15:07;29.40;42.30
7700;DHT22;3892;47.794;19.126;2022-08-06T06:17:55;29.40;42.10
7700;DHT22;3892;47.794;19.126;2022-08-06T06:20:32;29.50;41.40
7700;DHT22;3892;47.794;19.126;2022-08-06T06:23:05;29.50;41.10
7700;DHT22;3892;47.794;19.126;2022-08-06T06:25:37;29.50;40.40
7700;DHT22;3892;47.794;19.126;2022-08-06T06:28:14;29.50;40.40
7700;DHT22;3892;47.794;19.126;2022-08-06T06:30:49;29.50;40.40
7700;DHT22;3892;47.794;19.126;2022-08-06T06:33:22;29.60;40.40
7700;DHT22;3892;47.794;19.126;2022-08-06T06:35:55;29.70;40.60
7700;DHT22;3892;47.794;19.126;2022-08-06T06:38:34;29.70;40.10
7700;DHT22;3892;47.794;19.126;2022-08-06T06:41:09;29.70;40.30
7700;DHT22;3892;47.794;19.126;2022-08-06T06:43:43;29.70;39.40
7700;DHT22;3892;47.794;19.126;2022-08-06T06:46:17;29.80;39.40
7700;DHT22;3892;47.794;19.126;2022-08-06T06:48:49;29.90;39.50
7700;DHT22;3892;47.794;19.126;2022-08-06T06:51:24;30.00;39.40
7700;DHT22;3892;47.794;19.126;2022-08-06T06:53:53;30.00;39.40
7700;DHT22;3892;47.794;19.126;2022-08-06T06:56:25;30.10;39.60
7700;DHT22;3892;47.794;19.126;2022-08-06T06:58:56;30.10;39.40
7700;DHT22;3892;47.794;19.126;2022-08-06T07:01:25;30.20;39.70
7700;DHT22;3892;47.794;19.126;2022-08-06T07:03:55;30.20;39.00
7700;DHT22;3892;47.794;19.126;2022-08-06T07:06:23;30.30;39.20
7700;DHT22;3892;47.794;19.126;2022-08-06T07:08:50;30.40;39.30
7700;DHT22;3892;47.794;19.126;2022-08-06T07:11:21;30.40;39.20
7700;DHT22;3892;47.794;19.126;2022-08-06T07:13:50;30.40;39.10
7700;DHT22;3892;47.794;19.126;2022-08-06T07:16:18;30.50;38.80
7700;DHT22;3892;47.794;19.126;2022-08-06T07:18:47;30.50;38.80
7700;DHT22;3892;47.794;19.126;2022-08-06T07:21:17;30.50;38.60
7700;DHT22;3892;47.794;19.126;2022-08-06T07:23:45;30.60;38.60
7700;DHT22;3892;47.794;19.126;2022-08-06T07:26:16;30.60;38.70
7700;DHT22;3892;47.794;19.126;2022-08-06T07:28:44;30.70;38.40
7700;DHT22;3892;47.794;19.126;2022-08-06T07:31:11;30.70;38.50
7700;DHT22;3892;47.794;19.126;2022-08-06T07:33:42;30.80;38.50
7700;DHT22;3892;47.794;19.126;2022-08-06T07:36:10;30.80;38.30
7700;DHT22;3892;47.794;19.126;2022-08-06T07:38:41;30.80;37.90
7700;DHT22;3892;47.794;19.126;2022-08-06T07:41:09;30.80;38.10
7700;DHT22;3892;47.794;19.126;2022-08-06T07:43:42;30.90;38.80
7700;DHT22;3892;47.794;19.126;2022-08-06T07:46:13;31.00;38.10
7700;DHT22;3892;47.794;19.126;2022-08-06T07:48:45;31.00;37.90
7700;DHT22;3892;47.794;19.126;2022-08-06T07:51:13;31.00;38.10
7700;DHT22;3892;47.794;19.126;2022-08-06T07:53:43;31.10;37.90
7700;DHT22;3892;47.794;19.126;2022-08-06T07:56:11;31.20;38.10
7700;DHT22;3892;47.794;19.126;2022-08-06T07:58:38;31.20;37.90
7700;DHT22;3892;47.794;19.126;2022-08-06T08:01:06;31.30;37.90
7700;DHT22;3892;47.794;19.126;2022-08-06T08:03:34;31.30;37.70
7700;DHT22;3892;47.794;19.126;2022-08-06T08:06:20;31.40;37.80
7700;DHT22;3892;47.794;19.126;2022-08-06T08:08:52;31.40;37.30
7700;DHT22;3892;47.794;19.126;2022-08-06T08:11:20;31.40;37.80
7700;DHT22;3892;47.794;19.126;2022-08-06T08:13:50;31.50;37.70
7700;DHT22;3892;47.794;19.126;2022-08-06T08:16:18;31.50;38.00
7700;DHT22;3892;47.794;19.126;2022-08-06T08:18:46;31.60;37.40
7700;DHT22;3892;47.794;19.126;2022-08-06T08:21:14;31.60;37.90
7700;DHT22;3892;47.794;19.126;2022-08-06T08:23:46;31.60;37.20
7700;DHT22;3892;47.794;19.126;2022-08-06T08:26:15;31.70;37.30
7700;DHT22;3892;47.794;19.126;2022-08-06T08:28:46;31.80;37.20
7700;DHT22;3892;47.794;19.126;2022-08-06T08:31:13;31.80;37.30
7700;DHT22;3892;47.794;19.126;2022-08-06T08:33:40;31.90;37.30
7700;DHT22;3892;47.794;19.126;2022-08-06T08:36:08;31.90;36.90
7700;DHT22;3892;47.794;19.126;2022-08-06T08:38:35;32.00;37.00
7700;DHT22;3892;47.794;19.126;2022-08-06T08:41:08;32.10;37.00
7700;DHT22;3892;47.794;19.126;2022-08-06T08:43:43;32.20;36.80
7700;DHT22;3892;47.794;19.126;2022-08-06T08:46:15;32.20;37.20
7700;DHT22;3892;47.794;19.126;2022-08-06T08:48:43;32.30;36.60
7700;DHT22;3892;47.794;19.126;2022-08-06T08:51:12;32.30;36.70
7700;DHT22;3892;47.794;19.126;2022-08-06T08:53:53;32.40;36.80
7700;DHT22;3892;47.794;19.126;2022-08-06T08:56:21;32.40;36.60
7700;DHT22;3892;47.794;19.126;2022-08-06T08:58:51;32.50;36.70
7700;DHT22;3892;47.794;19.126;2022-08-06T09:01:18;32.60;36.80
7700;DHT22;3892;47.794;19.126;2022-08-06T09:03:45;32.70;37.00
7700;DHT22;3892;47.794;19.126;2022-08-06T09:06:13;32.70;36.60
7700;DHT22;3892;47.794;19.126;2022-08-06T09:08:40;32.80;36.30
7700;DHT22;3892;47.794;19.126;2022-08-06T09:11:07;32.90;36.50
7700;DHT22;3892;47.794;19.126;2022-08-06T09:13:34;33.00;36.70
7700;DHT22;3892;47.794;19.126;2022-08-06T09:16:03;33.00;36.20
7700;DHT22;3892;47.794;19.126;2022-08-06T09:18:30;33.10;36.20
7700;DHT22;3892;47.794;19.126;2022-08-06T09:21:00;33.20;36.30
7700;DHT22;3892;47.794;19.126;2022-08-06T09:23:28;33.30;36.10
7700;DHT22;3892;47.794;19.126;2022-08-06T09:25:55;33.30;35.60
7700;DHT22;3892;47.794;19.126;2022-08-06T09:28:33;33.40;36.00
7700;DHT22;3892;47.794;19.126;2022-08-06T09:31:04;33.50;36.50
7700;DHT22;3892;47.794;19.126;2022-08-06T09:33:33;33.60;36.20
7700;DHT22;3892;47.794;19.126;2022-08-06T09:36:03;33.70;35.90
7700;DHT22;3892;47.794;19.126;2022-08-06T09:38:30;33.90;36.10
7700;DHT22;3892;47.794;19.126;2022-08-06T09:41:09;34.00;36.00
7700;DHT22;3892;47.794;19.126;2022-08-06T09:43:37;34.00;34.70
7700;DHT22;3892;47.794;19.126;2022-08-06T09:46:06;34.10;34.90
7700;DHT22;3892;47.794;19.126;2022-08-06T09:48:36;34.20;34.70
7700;DHT22;3892;47.794;19.126;2022-08-06T09:51:04;34.30;34.70
7700;DHT22;3892;47.794;19.126;2022-08-06T09:53:33;34.40;34.70
7700;DHT22;3892;47.794;19.126;2022-08-06T09:56:00;34.40;34.60
7700;DHT22;3892;47.794;19.126;2022-08-06T09:58:29;34.50;34.50
7700;DHT22;3892;47.794;19.126;2022-08-06T10:00:56;34.50;35.10
7700;DHT22;3892;47.794;19.126;2022-08-06T10:03:24;34.60;34.40
7700;DHT22;3892;47.794;19.126;2022-08-06T10:06:05;34.70;34.40
7700;DHT22;3892;47.794;19.126;2022-08-06T10:08:32;34.80;34.50
7700;DHT22;3892;47.794;19.126;2022-08-06T10:10:58;34.80;34.00
7700;DHT22;3892;47.794;19.126;2022-08-06T10:13:30;35.00;34.40
7700;DHT22;3892;47.794;19.126;2022-08-06T10:15:58;35.00;34.20
7700;DHT22;3892;47.794;19.126;2022-08-06T10:18:38;35.10;33.80
7700;DHT22;3892;47.794;19.126;2022-08-06T10:21:08;35.20;33.80
7700;DHT22;3892;47.794;19.126;2022-08-06T10:23:41;35.30;34.10
7700;DHT22;3892;47.794;19.126;2022-08-06T10:26:10;35.30;33.50
7700;DHT22;3892;47.794;19.126;2022-08-06T10:28:39;35.40;33.50
7700;DHT22;3892;47.794;19.126;2022-08-06T10:31:09;35.50;33.90
7700;DHT22;3892;47.794;19.126;2022-08-06T10:33:40;35.50;33.60
7700;DHT22;3892;47.794;19.126;2022-08-06T10:36:10;35.60;33.70
7700;DHT22;3892;47.794;19.126;2022-08-06T10:38:40;35.60;33.20
7700;DHT22;3892;47.794;19.126;2022-08-06T10:41:11;35.80;33.30
7700;DHT22;3892;47.794;19.126;2022-08-06T10:43:39;35.90;33.30
7700;DHT22;3892;47.794;19.126;2022-08-06T10:46:11;35.90;33.70
7700;DHT22;3892;47.794;19.126;2022-08-06T10:48:44;36.00;33.40
7700;DHT22;3892;47.794;19.126;2022-08-06T10:51:13;36.20;33.30
7700;DHT22;3892;47.794;19.126;2022-08-06T10:53:42;36.30;32.90
7700;DHT22;3892;47.794;19.126;2022-08-06T10:56:11;36.40;33.00
7700;DHT22;3892;47.794;19.126;2022-08-06T10:58:38;36.50;32.80
7700;DHT22;3892;47.794;19.126;2022-08-06T11:01:08;36.50;32.50
7700;DHT22;3892;47.794;19.126;2022-08-06T11:03:48;36.60;32.70
7700;DHT22;3892;47.794;19.126;2022-08-06T11:06:48;36.70;33.10
7700;DHT22;3892;47.794;19.126;2022-08-06T11:09:44;36.80;33.30
7700;DHT22;3892;47.794;19.126;2022-08-06T11:12:28;36.90;33.00
7700;DHT22;3892;47.794;19.126;2022-08-06T11:14:58;37.00;32.30
7700;DHT22;3892;47.794;19.126;2022-08-06T11:17:41;37.10;32.00
7700;DHT22;3892;47.794;19.126;2022-08-06T11:20:36;37.10;32.20
7700;DHT22;3892;47.794;19.126;2022-08-06T11:23:22;37.20;32.20
7700;DHT22;3892;47.794;19.126;2022-08-06T11:25:51;37.30;32.50
7700;DHT22;3892;47.794;19.126;2022-08-06T11:28:19;37.40;32.20
7700;DHT22;3892;47.794;19.126;2022-08-06T11:30:47;37.50;32.00
7700;DHT22;3892;47.794;19.126;2022-08-06T11:33:16;37.50;31.40
7700;DHT22;3892;47.794;19.126;2022-08-06T11:35:47;37.60;31.00
7700;DHT22;3892;47.794;19.126;2022-08-06T11:38:15;37.70;31.60
7700;DHT22;3892;47.794;19.126;2022-08-06T11:40:59;37.70;31.80
7700;DHT22;3892;47.794;19.126;2022-08-06T11:43:45;37.90;31.70
7700;DHT22;3892;47.794;19.126;2022-08-06T11:46:23;38.00;31.10
7700;DHT22;3892;47.794;19.126;2022-08-06T11:49:12;38.00;31.30
7700;DHT22;3892;47.794;19.126;2022-08-06T11:51:42;38.10;31.60
7700;DHT22;3892;47.794;19.126;2022-08-06T11:54:11;38.20;31.30
7700;DHT22;3892;47.794;19.126;2022-08-06T11:59:45;38.30;31.00
7700;DHT22;3892;47.794;19.126;2022-08-06T12:02:15;38.20;31.20
7700;DHT22;3892;47.794;19.126;2022-08-06T12:04:44;38.30;31.80
7700;DHT22;3892;47.794;19.126;2022-08-06T12:07:21;38.40;31.50
7700;DHT22;3892;47.794;19.126;2022-08-06T12:09:58;38.40;31.10
7700;DHT22;3892;47.794;19.126;2022-08-06T12:12:36;38.50;31.10
7700;DHT22;3892;47.794;19.126;2022-08-06T12:15:35;38.50;31.20
7700;DHT22;3892;47.794;19.126;2022-08-06T12:18:03;38.50;31.70
7700;DHT22;3892;47.794;19.126;2022-08-06T12:20:31;38.40;32.40
7700;DHT22;3892;47.794;19.126;2022-08-06T12:23:01;38.40;32.20
7700;DHT22;3892;47.794;19.126;2022-08-06T12:25:32;38.30;32.60
7700;DHT22;3892;47.794;19.126;2022-08-06T12:28:00;38.30;32.50
7700;DHT22;3892;47.794;19.126;2022-08-06T12:30:28;38.40;32.30
7700;DHT22;3892;47.794;19.126;2022-08-06T12:33:07;38.40;31.60
7700;DHT22;3892;47.794;19.126;2022-08-06T12:35:34;38.40;31.60
7700;DHT22;3892;47.794;19.126;2022-08-06T12:38:02;38.50;31.60
7700;DHT22;3892;47.794;19.126;2022-08-06T12:40:29;38.60;32.00
7700;DHT22;3892;47.794;19.126;2022-08-06T12:43:08;38.60;31.60
7700;DHT22;3892;47.794;19.126;2022-08-06T12:45:36;38.50;31.70
7700;DHT22;3892;47.794;19.126;2022-08-06T12:48:06;38.40;31.10
7700;DHT22;3892;47.794;19.126;2022-08-06T12:50:35;38.30;31.50
7700;DHT22;3892;47.794;19.126;2022-08-06T12:53:04;38.20;31.10
7700;DHT22;3892;47.794;19.126;2022-08-06T12:55:33;38.10;33.10
7700;DHT22;3892;47.794;19.126;2022-08-06T12:58:01;38.00;35.20
7700;DHT22;3892;47.794;19.126;2022-08-06T13:00:29;37.80;36.90
7700;DHT22;3892;47.794;19.126;2022-08-06T13:02:56;37.60;39.10
7700;DHT22;3892;47.794;19.126;2022-08-06T13:05:25;37.40;40.30
7700;DHT22;3892;47.794;19.126;2022-08-06T13:07:54;37.20;42.00
7700;DHT22;3892;47.794;19.126;2022-08-06T13:10:23;37.00;42.20
7700;DHT22;3892;47.794;19.126;2022-08-06T13:12:53;36.60;42.40
7700;DHT22;3892;47.794;19.126;2022-08-06T13:15:22;36.30;43.30
7700;DHT22;3892;47.794;19.126;2022-08-06T13:18:03;35.80;44.50
7700;DHT22;3892;47.794;19.126;2022-08-06T13:20:38;35.50;44.50
7700;DHT22;3892;47.794;19.126;2022-08-06T13:23:05;35.40;44.30
7700;DHT22;3892;47.794;19.126;2022-08-06T13:25:41;35.40;45.70
7700;DHT22;3892;47.794;19.126;2022-08-06T13:28:09;35.50;46.50
7700;DHT22;3892;47.794;19.126;2022-08-06T13:30:36;35.60;48.00
7700;DHT22;3892;47.794;19.126;2022-08-06T13:33:14;35.60;49.00
7700;DHT22;3892;47.794;19.126;2022-08-06T13:35:41;35.50;48.30
7700;DHT22;3892;47.794;19.126;2022-08-06T13:38:08;35.40;48.50
7700;DHT22;3892;47.794;19.126;2022-08-06T13:40:39;35.30;48.90
7700;DHT22;3892;47.794;19.126;2022-08-06T13:43:09;35.20;48.90
7700;DHT22;3892;47.794;19.126;2022-08-06T13:45:36;35.20;49.60
7700;DHT22;3892;47.794;19.126;2022-08-06T13:48:04;35.20;49.80
7700;DHT22;3892;47.794;19.126;2022-08-06T13:50:32;35.20;51.10
7700;DHT22;3892;47.794;19.126;2022-08-06T13:52:59;35.20;49.40
7700;DHT22;3892;47.794;19.126;2022-08-06T13:55:26;35.20;47.70
7700;DHT22;3892;47.794;19.126;2022-08-06T13:57:54;35.20;44.90
7700;DHT22;3892;47.794;19.126;2022-08-06T14:00:24;35.20;43.30
7700;DHT22;3892;47.794;19.126;2022-08-06T14:02:51;35.20;42.60
7700;DHT22;3892;47.794;19.126;2022-08-06T14:05:18;35.30;41.90
7700;DHT22;3892;47.794;19.126;2022-08-06T14:07:45;35.30;41.70
7700;DHT22;3892;47.794;19.126;2022-08-06T14:10:13;35.30;41.20
7700;DHT22;3892;47.794;19.126;2022-08-06T14:12:41;35.30;40.80
7700;DHT22;3892;47.794;19.126;2022-08-06T14:15:09;35.40;40.70
7700;DHT22;3892;47.794;19.126;2022-08-06T14:17:38;35.40;40.40
7700;DHT22;3892;47.794;19.126;2022-08-06T14:20:05;35.40;40.00
7700;DHT22;3892;47.794;19.126;2022-08-06T14:22:32;35.40;39.90
7700;DHT22;3892;47.794;19.126;2022-08-06T14:24:59;35.40;39.50
7700;DHT22;3892;47.794;19.126;2022-08-06T14:27:26;35.40;39.30
7700;DHT22;3892;47.794;19.126;2022-08-06T14:29:53;35.50;39.40
7700;DHT22;3892;47.794;19.126;2022-08-06T14:32:20;35.50;38.90
7700;DHT22;3892;47.794;19.126;2022-08-06T14:34:48;35.50;38.80
7700;DHT22;3892;47.794;19.126;2022-08-06T14:37:16;35.40;39.10
7700;DHT22;3892;47.794;19.126;2022-08-06T14:39:43;35.40;38.70
7700;DHT22;3892;47.794;19.126;2022-08-06T14:42:10;35.50;38.60
7700;DHT22;3892;47.794;19.126;2022-08-06T14:44:55;35.50;38.60
7700;DHT22;3892;47.794;19.126;2022-08-06T14:47:23;35.70;39.60
7700;DHT22;3892;47.794;19.126;2022-08-06T14:49:52;35.70;39.20
7700;DHT22;3892;47.794;19.126;2022-08-06T14:52:19;35.70;38.50
7700;DHT22;3892;47.794;19.126;2022-08-06T14:54:46;35.80;38.20
7700;DHT22;3892;47.794;19.126;2022-08-06T14:57:13;35.70;38.00
7700;DHT22;3892;47.794;19.126;2022-08-06T14:59:40;35.70;38.70
7700;DHT22;3892;47.794;19.126;2022-08-06T15:02:07;35.70;39.10
7700;DHT22;3892;47.794;19.126;2022-08-06T15:04:34;35.60;38.70
7700;DHT22;3892;47.794;19.126;2022-08-06T15:07:02;35.50;38.50
7700;DHT22;3892;47.794;19.126;2022-08-06T15:09:29;35.40;38.30
7700;DHT22;3892;47.794;19.126;2022-08-06T15:11:57;35.40;38.70
7700;DHT22;3892;47.794;19.126;2022-08-06T15:14:25;35.30;39.30
7700;DHT22;3892;47.794;19.126;2022-08-06T15:16:52;35.30;38.90
7700;DHT22;3892;47.794;19.126;2022-08-06T15:19:20;35.30;39.00
7700;DHT22;3892;47.794;19.126;2022-08-06T15:21:48;35.30;38.70
7700;DHT22;3892;47.794;19.126;2022-08-06T15:24:16;35.20;38.90
7700;DHT22;3892;47.794;19.126;2022-08-06T15:26:43;35.10;38.50
7700;DHT22;3892;47.794;19.126;2022-08-06T15:29:10;35.10;38.40
7700;DHT22;3892;47.794;19.126;2022-08-06T15:31:38;35.00;38.80
7700;DHT22;3892;47.794;19.126;2022-08-06T15:34:05;35.10;39.00
7700;DHT22;3892;47.794;19.126;2022-08-06T15:36:32;35.10;39.60
7700;DHT22;3892;47.794;19.126;2022-08-06T15:38:59;35.10;38.90
7700;DHT22;3892;47.794;19.126;2022-08-06T15:41:27;35.20;38.60
7700;DHT22;3892;47.794;19.126;2022-08-06T15:43:56;35.20;38.50
7700;DHT22;3892;47.794;19.126;2022-08-06T15:46:23;35.10;38.90
7700;DHT22;3892;47.794;19.126;2022-08-06T15:48:50;35.20;38.60
7700;DHT22;3892;47.794;19.126;2022-08-06T15:51:22;35.20;38.70
7700;DHT22;3892;47.794;19.126;2022-08-06T15:53:49;35.30;38.90
7700;DHT22;3892;47.794;19.126;2022-08-06T15:56:16;35.30;38.90
7700;DHT22;3892;47.794;19.126;2022-08-06T15:58:45;35.40;38.50
7700;DHT22;3892;47.794;19.126;2022-08-06T16:01:12;35.40;38.40
7700;DHT22;3892;47.794;19.126;2022-08-06T16:03:39;35.40;38.10
7700;DHT22;3892;47.794;19.126;2022-08-06T16:06:06;35.50;38.20